sensor_id;sensor_type;location;lat;lon;timestamp;pressure;altitude;pressure_sealevel;temperature;humidity
60437;BME280;46289;51.992;4.498;2023-03-31T00:01:13;100467.97;;;10.12;85.02
60437;BME280;46289;51.992;4.498;2023-03-31T00:03:17;100456.78;;;10.08;85.38
60437;BME280;46289;51.992;4.498;2023-03-31T00:05:25;100450.78;;;10.05;85.22
60437;BME280;46289;51.992;4.498;2023-03-31T00:07:30;100448.31;;;10.02;85.42
60437;BME280;46289;51.992;4.498;2023-03-31T00:09:45;100440.38;;;10.03;85.32
60437;BME280;46289;51.992;4.498;2023-03-31T00:12:14;100446.28;;;10.08;86.02
60437;BME280;46289;51.992;4.498;2023-03-31T00:14:19;100437.75;;;10.03;88.14
60437;BME280;46289;51.992;4.498;2023-03-31T00:16:24;100421.47;;;9.95;89.35
60437;BME280;46289;51.992;4.498;2023-03-31T00:18:30;100415.31;;;9.96;88.94
60437;BME280;46289;51.992;4.498;2023-03-31T00:20:40;100412.69;;;9.96;89.03
60437;BME280;46289;51.992;4.498;2023-03-31T00:22:57;100408.44;;;9.94;89.20
60437;BME280;46289;51.992;4.498;2023-03-31T00:25:24;100405.81;;;9.94;89.48
60437;BME280;46289;51.992;4.498;2023-03-31T00:28:05;100400.59;;;9.92;89.60
60437;BME280;46289;51.992;4.498;2023-03-31T00:30:25;100396.28;;;9.91;89.46
60437;BME280;46289;51.992;4.498;2023-03-31T00:32:47;100396.00;;;9.97;89.24
60437;BME280;46289;51.992;4.498;2023-03-31T00:34:56;100384.81;;;9.94;89.59
60437;BME280;46289;51.992;4.498;2023-03-31T00:37:17;100380.53;;;9.91;89.72
60437;BME280;46289;51.992;4.498;2023-03-31T00:39:35;100388.06;;;9.99;89.24
60437;BME280;46289;51.992;4.498;2023-03-31T00:41:48;100372.19;;;10.02;89.17
60437;BME280;46289;51.992;4.498;2023-03-31T00:44:13;100370.41;;;10.02;89.23
60437;BME280;46289;51.992;4.498;2023-03-31T00:46:33;100376.28;;;10.07;89.30
60437;BME280;46289;51.992;4.498;2023-03-31T00:48:46;100376.16;;;10.10;89.50
60437;BME280;46289;51.992;4.498;2023-03-31T00:51:03;100359.34;;;10.15;89.11
60437;BME280;46289;51.992;4.498;2023-03-31T00:53:11;100357.34;;;10.20;89.29
60437;BME280;46289;51.992;4.498;2023-03-31T00:55:26;100347.50;;;10.25;89.19
60437;BME280;46289;51.992;4.498;2023-03-31T00:57:38;100336.56;;;10.34;88.94
60437;BME280;46289;51.992;4.498;2023-03-31T00:59:54;100331.94;;;10.39;88.54
60437;BME280;46289;51.992;4.498;2023-03-31T01:02:09;100337.06;;;10.42;88.41
60437;BME280;46289;51.992;4.498;2023-03-31T01:04:20;100334.22;;;10.47;88.54
60437;BME280;46289;51.992;4.498;2023-03-31T01:06:32;100328.13;;;10.46;88.85
60437;BME280;46289;51.992;4.498;2023-03-31T01:08:40;100324.50;;;10.49;88.65
60437;BME280;46289;51.992;4.498;2023-03-31T01:10:49;100322.66;;;10.51;88.70
60437;BME280;46289;51.992;4.498;2023-03-31T01:13:00;100310.34;;;10.51;89.24
60437;BME280;46289;51.992;4.498;2023-03-31T01:15:16;100306.63;;;10.55;88.51
60437;BME280;46289;51.992;4.498;2023-03-31T01:17:33;100309.25;;;10.55;88.83
60437;BME280;46289;51.992;4.498;2023-03-31T01:20:22;100304.78;;;10.58;88.65
60437;BME280;46289;51.992;4.498;2023-03-31T01:22:56;100289.19;;;10.54;89.36
60437;BME280;46289;51.992;4.498;2023-03-31T01:25:50;100286.78;;;10.50;89.71
60437;BME280;46289;51.992;4.498;2023-03-31T01:28:41;100281.78;;;10.45;90.23
60437;BME280;46289;51.992;4.498;2023-03-31T01:31:33;100272.31;;;10.41;90.57
60437;BME280;46289;51.992;4.498;2023-03-31T01:36:56;100268.06;;;10.39;90.83
60437;BME280;46289;51.992;4.498;2023-03-31T01:41:43;100253.47;;;10.33;91.25
60437;BME280;46289;51.992;4.498;2023-03-31T01:43:58;100247.59;;;10.28;91.73
60437;BME280;46289;51.992;4.498;2023-03-31T01:46:12;100236.94;;;10.31;92.03
60437;BME280;46289;51.992;4.498;2023-03-31T01:48:30;100245.88;;;10.27;92.50
60437;BME280;46289;51.992;4.498;2023-03-31T01:50:44;100237.88;;;10.30;92.61
60437;BME280;46289;51.992;4.498;2023-03-31T01:52:57;100217.88;;;10.26;92.26
60437;BME280;46289;51.992;4.498;2023-03-31T01:55:10;100219.03;;;10.20;92.90
60437;BME280;46289;51.992;4.498;2023-03-31T01:57:23;100206.84;;;10.19;92.63
60437;BME280;46289;51.992;4.498;2023-03-31T01:59:35;100209.53;;;10.18;93.08
60437;BME280;46289;51.992;4.498;2023-03-31T02:01:45;100204.28;;;10.18;93.12
60437;BME280;46289;51.992;4.498;2023-03-31T02:03:56;100194.84;;;10.14;93.13
60437;BME280;46289;51.992;4.498;2023-03-31T02:06:05;100188.75;;;10.13;93.28
60437;BME280;46289;51.992;4.498;2023-03-31T02:08:15;100182.66;;;10.13;93.31
60437;BME280;46289;51.992;4.498;2023-03-31T02:10:25;100178.34;;;10.11;93.16
60437;BME280;46289;51.992;4.498;2023-03-31T02:12:40;100165.38;;;10.08;93.06
60437;BME280;46289;51.992;4.498;2023-03-31T02:14:49;100154.78;;;10.10;92.94
60437;BME280;46289;51.992;4.498;2023-03-31T02:16:58;100147.13;;;10.05;93.15
60437;BME280;46289;51.992;4.498;2023-03-31T02:19:05;100138.34;;;10.06;92.54
60437;BME280;46289;51.992;4.498;2023-03-31T02:21:13;100133.72;;;10.11;92.28
60437;BME280;46289;51.992;4.498;2023-03-31T02:23:23;100121.75;;;10.06;92.37
60437;BME280;46289;51.992;4.498;2023-03-31T02:25:34;100111.31;;;10.04;92.64
60437;BME280;46289;51.992;4.498;2023-03-31T02:27:48;100100.75;;;10.06;92.66
60437;BME280;46289;51.992;4.498;2023-03-31T02:29:58;100100.81;;;10.04;92.79
60437;BME280;46289;51.992;4.498;2023-03-31T02:32:09;100091.31;;;10.02;92.56
60437;BME280;46289;51.992;4.498;2023-03-31T02:34:15;100090.00;;;10.10;92.51
60437;BME280;46289;51.992;4.498;2023-03-31T02:36:21;100087.75;;;10.03;92.72
60437;BME280;46289;51.992;4.498;2023-03-31T02:38:30;100075.72;;;9.99;92.96
60437;BME280;46289;51.992;4.498;2023-03-31T02:40:39;100071.47;;;9.96;92.97
60437;BME280;46289;51.992;4.498;2023-03-31T02:42:47;100068.06;;;9.94;93.09
60437;BME280;46289;51.992;4.498;2023-03-31T02:45:01;100056.72;;;9.94;93.09
60437;BME280;46289;51.992;4.498;2023-03-31T02:47:08;100049.09;;;9.89;93.44
60437;BME280;46289;51.992;4.498;2023-03-31T02:49:16;100043.78;;;9.91;92.24
60437;BME280;46289;51.992;4.498;2023-03-31T02:51:44;100044.69;;;9.89;92.36
60437;BME280;46289;51.992;4.498;2023-03-31T02:54:07;100039.44;;;9.89;92.68
60437;BME280;46289;51.992;4.498;2023-03-31T02:56:30;100034.44;;;9.85;92.66
60437;BME280;46289;51.992;4.498;2023-03-31T02:58:54;100025.69;;;9.84;92.50
60437;BME280;46289;51.992;4.498;2023-03-31T03:01:10;100016.19;;;9.82;91.81
60437;BME280;46289;51.992;4.498;2023-03-31T03:03:29;100018.13;;;9.78;91.95
60437;BME280;46289;51.992;4.498;2023-03-31T03:05:43;100017.34;;;9.76;91.89
60437;BME280;46289;51.992;4.498;2023-03-31T03:07:57;100014.06;;;9.73;92.27
60437;BME280;46289;51.992;4.498;2023-03-31T03:10:10;100004.78;;;9.65;91.71
60437;BME280;46289;51.992;4.498;2023-03-31T03:12:24;100004.09;;;9.62;92.24
60437;BME280;46289;51.992;4.498;2023-03-31T03:14:43;99996.75;;;9.51;92.28
60437;BME280;46289;51.992;4.498;2023-03-31T03:16:57;99989.06;;;9.48;92.80
60437;BME280;46289;51.992;4.498;2023-03-31T03:19:05;99987.72;;;9.39;92.94
60437;BME280;46289;51.992;4.498;2023-03-31T03:21:13;99975.69;;;9.35;93.32
60437;BME280;46289;51.992;4.498;2023-03-31T03:23:19;99974.13;;;9.31;92.53
60437;BME280;46289;51.992;4.498;2023-03-31T03:25:26;99967.22;;;9.30;92.68
60437;BME280;46289;51.992;4.498;2023-03-31T03:27:31;99967.22;;;9.30;92.91
60437;BME280;46289;51.992;4.498;2023-03-31T03:29:39;99954.16;;;9.29;93.15
60437;BME280;46289;51.992;4.498;2023-03-31T03:31:45;99946.22;;;9.30;93.19
60437;BME280;46289;51.992;4.498;2023-03-31T03:33:50;99940.22;;;9.28;93.52
60437;BME280;46289;51.992;4.498;2023-03-31T03:35:55;99929.66;;;9.30;93.70
60437;BME280;46289;51.992;4.498;2023-03-31T03:38:00;99919.16;;;9.30;93.85
60437;BME280;46289;51.992;4.498;2023-03-31T03:40:07;99914.59;;;9.33;93.60
60437;BME280;46289;51.992;4.498;2023-03-31T03:42:14;99903.44;;;9.30;93.63
60437;BME280;46289;51.992;4.498;2023-03-31T03:44:20;99892.69;;;9.34;93.81
60437;BME280;46289;51.992;4.498;2023-03-31T03:46:27;99880.53;;;9.33;93.86
60437;BME280;46289;51.992;4.498;2023-03-31T03:48:32;99879.47;;;9.37;93.47
60437;BME280;46289;51.992;4.498;2023-03-31T03:50:37;99879.38;;;9.39;93.68
60437;BME280;46289;51.992;4.498;2023-03-31T03:52:42;99865.47;;;9.37;94.26
60437;BME280;46289;51.992;4.498;2023-03-31T03:54:47;99861.00;;;9.39;94.52
60437;BME280;46289;51.992;4.498;2023-03-31T03:56:52;99857.94;;;9.48;93.76
60437;BME280;46289;51.992;4.498;2023-03-31T03:58:58;99848.28;;;9.49;93.66
60437;BME280;46289;51.992;4.498;2023-03-31T04:01:02;99839.47;;;9.50;93.66
60437;BME280;46289;51.992;4.498;2023-03-31T04:03:10;99847.34;;;9.50;94.00
60437;BME280;46289;51.992;4.498;2023-03-31T04:05:16;99831.31;;;9.56;93.93
60437;BME280;46289;51.992;4.498;2023-03-31T04:07:24;99826.06;;;9.56;93.87
60437;BME280;46289;51.992;4.498;2023-03-31T04:09:31;99834.84;;;9.55;94.10
60437;BME280;46289;51.992;4.498;2023-03-31T04:11:38;99816.91;;;9.63;93.91
60437;BME280;46289;51.992;4.498;2023-03-31T04:13:48;99812.78;;;9.59;93.98
60437;BME280;46289;51.992;4.498;2023-03-31T04:15:53;99806.81;;;9.55;94.39
60437;BME280;46289;51.992;4.498;2023-03-31T04:17:59;99811.16;;;9.56;94.59
60437;BME280;46289;51.992;4.498;2023-03-31T04:20:09;99798.97;;;9.55;94.58
60437;BME280;46289;51.992;4.498;2023-03-31T04:22:15;99797.22;;;9.56;94.76
60437;BME280;46289;51.992;4.498;2023-03-31T04:24:21;99789.25;;;9.57;94.28
60437;BME280;46289;51.992;4.498;2023-03-31T04:26:33;99772.72;;;9.55;94.48
60437;BME280;46289;51.992;4.498;2023-03-31T04:28:44;99774.50;;;9.55;94.93
60437;BME280;46289;51.992;4.498;2023-03-31T04:30:54;99777.13;;;9.55;94.34
60437;BME280;46289;51.992;4.498;2023-03-31T04:33:01;99775.13;;;9.60;94.19
60437;BME280;46289;51.992;4.498;2023-03-31T04:35:10;99776.72;;;9.62;94.49
60437;BME280;46289;51.992;4.498;2023-03-31T04:37:16;99770.53;;;9.63;93.98
60437;BME280;46289;51.992;4.498;2023-03-31T04:39:21;99761.22;;;9.58;94.26
60437;BME280;46289;51.992;4.498;2023-03-31T04:41:27;99757.44;;;9.63;93.73
60437;BME280;46289;51.992;4.498;2023-03-31T04:43:32;99753.13;;;9.62;93.75
60437;BME280;46289;51.992;4.498;2023-03-31T04:45:37;99745.31;;;9.61;94.03
60437;BME280;46289;51.992;4.498;2023-03-31T04:47:43;99746.19;;;9.61;93.78
60437;BME280;46289;51.992;4.498;2023-03-31T04:49:47;99739.25;;;9.60;93.88
60437;BME280;46289;51.992;4.498;2023-03-31T04:51:55;99732.16;;;9.62;93.66
60437;BME280;46289;51.992;4.498;2023-03-31T04:54:01;99731.38;;;9.60;93.88
60437;BME280;46289;51.992;4.498;2023-03-31T04:56:08;99723.59;;;9.59;93.77
60437;BME280;46289;51.992;4.498;2023-03-31T04:58:14;99733.09;;;9.61;93.53
60437;BME280;46289;51.992;4.498;2023-03-31T05:00:20;99715.38;;;9.65;93.12
60437;BME280;46289;51.992;4.498;2023-03-31T05:02:25;99713.72;;;9.64;92.96
60437;BME280;46289;51.992;4.498;2023-03-31T05:04:33;99710.38;;;9.60;93.38
60437;BME280;46289;51.992;4.498;2023-03-31T05:06:38;99708.78;;;9.58;93.89
60437;BME280;46289;51.992;4.498;2023-03-31T05:08:45;99708.78;;;9.58;93.55
60437;BME280;46289;51.992;4.498;2023-03-31T05:10:52;99703.53;;;9.58;93.71
60437;BME280;46289;51.992;4.498;2023-03-31T05:12:57;99707.75;;;9.60;93.44
60437;BME280;46289;51.992;4.498;2023-03-31T05:15:06;99690.34;;;9.59;93.55
60437;BME280;46289;51.992;4.498;2023-03-31T05:17:11;99681.34;;;9.63;92.93
60437;BME280;46289;51.992;4.498;2023-03-31T05:19:19;99686.59;;;9.63;92.86
60437;BME280;46289;51.992;4.498;2023-03-31T05:21:24;99686.78;;;9.60;93.31
60437;BME280;46289;51.992;4.498;2023-03-31T05:23:32;99685.09;;;9.59;93.08
60437;BME280;46289;51.992;4.498;2023-03-31T05:25:40;99683.25;;;9.61;92.43
60437;BME280;46289;51.992;4.498;2023-03-31T05:27:49;99684.94;;;9.62;92.38
60437;BME280;46289;51.992;4.498;2023-03-31T05:29:57;99670.88;;;9.63;92.34
60437;BME280;46289;51.992;4.498;2023-03-31T05:32:02;99667.50;;;9.61;92.39
60437;BME280;46289;51.992;4.498;2023-03-31T05:34:10;99664.88;;;9.61;92.53
60437;BME280;46289;51.992;4.498;2023-03-31T05:36:16;99672.81;;;9.60;92.07
60437;BME280;46289;51.992;4.498;2023-03-31T05:38:24;99661.41;;;9.61;91.86
60437;BME280;46289;51.992;4.498;2023-03-31T05:40:30;99670.13;;;9.61;91.97
60437;BME280;46289;51.992;4.498;2023-03-31T05:42:37;99670.22;;;9.60;91.96
60437;BME280;46289;51.992;4.498;2023-03-31T05:44:42;99661.66;;;9.56;92.43
60437;BME280;46289;51.992;4.498;2023-03-31T05:46:47;99659.88;;;9.57;91.72
60437;BME280;46289;51.992;4.498;2023-03-31T05:48:52;99661.84;;;9.53;92.40
60437;BME280;46289;51.992;4.498;2023-03-31T05:50:57;99662.25;;;9.61;90.93
60437;BME280;46289;51.992;4.498;2023-03-31T05:53:02;99654.53;;;9.58;91.18
60437;BME280;46289;51.992;4.498;2023-03-31T05:55:11;99654.53;;;9.58;91.31
60437;BME280;46289;51.992;4.498;2023-03-31T05:57:15;99656.25;;;9.59;90.98
60437;BME280;46289;51.992;4.498;2023-03-31T05:59:25;99656.31;;;9.58;91.47
60437;BME280;46289;51.992;4.498;2023-03-31T06:01:30;99647.78;;;9.54;91.63
60437;BME280;46289;51.992;4.498;2023-03-31T06:03:37;99644.50;;;9.51;92.06
60437;BME280;46289;51.992;4.498;2023-03-31T06:05:47;99649.81;;;9.49;91.76
60437;BME280;46289;51.992;4.498;2023-03-31T06:07:54;99647.38;;;9.46;92.38
60437;BME280;46289;51.992;4.498;2023-03-31T06:10:06;99644.75;;;9.46;92.14
60437;BME280;46289;51.992;4.498;2023-03-31T06:12:16;99640.59;;;9.42;92.59
60437;BME280;46289;51.992;4.498;2023-03-31T06:14:21;99637.19;;;9.40;92.95
60437;BME280;46289;51.992;4.498;2023-03-31T06:16:32;99634.69;;;9.38;93.17
60437;BME280;46289;51.992;4.498;2023-03-31T06:18:37;99638.13;;;9.39;93.71
60437;BME280;46289;51.992;4.498;2023-03-31T06:20:43;99632.41;;;9.32;94.20
60437;BME280;46289;51.992;4.498;2023-03-31T06:22:47;99635.03;;;9.32;94.15
60437;BME280;46289;51.992;4.498;2023-03-31T06:24:53;99637.72;;;9.31;94.29
60437;BME280;46289;51.992;4.498;2023-03-31T06:26:58;99636.69;;;9.33;94.13
60437;BME280;46289;51.992;4.498;2023-03-31T06:29:06;99633.06;;;9.36;94.37
60437;BME280;46289;51.992;4.498;2023-03-31T06:31:12;99627.66;;;9.39;94.10
60437;BME280;46289;51.992;4.498;2023-03-31T06:33:20;99619.78;;;9.39;94.41
60437;BME280;46289;51.992;4.498;2023-03-31T06:35:25;99612.09;;;9.36;94.16
60437;BME280;46289;51.992;4.498;2023-03-31T06:37:30;99611.56;;;9.45;94.29
60437;BME280;46289;51.992;4.498;2023-03-31T06:39:38;99612.44;;;9.45;94.22
60437;BME280;46289;51.992;4.498;2023-03-31T06:41:47;99615.72;;;9.49;93.42
60437;BME280;46289;51.992;4.498;2023-03-31T06:43:52;99612.16;;;9.50;93.49
60437;BME280;46289;51.992;4.498;2023-03-31T06:45:57;99597.31;;;9.51;93.79
60437;BME280;46289;51.992;4.498;2023-03-31T06:48:05;99609.41;;;9.53;93.91
60437;BME280;46289;51.992;4.498;2023-03-31T06:50:13;99607.50;;;9.55;93.44
60437;BME280;46289;51.992;4.498;2023-03-31T06:52:18;99596.00;;;9.58;93.95
60437;BME280;46289;51.992;4.498;2023-03-31T06:54:26;99597.53;;;9.62;93.67
60437;BME280;46289;51.992;4.498;2023-03-31T06:56:31;99595.38;;;9.68;93.84
60437;BME280;46289;51.992;4.498;2023-03-31T06:58:41;99597.94;;;9.70;93.96
60437;BME280;46289;51.992;4.498;2023-03-31T07:00:50;99592.78;;;9.68;93.64
60437;BME280;46289;51.992;4.498;2023-03-31T07:02:57;99579.50;;;9.72;93.42
60437;BME280;46289;51.992;4.498;2023-03-31T07:05:07;99582.97;;;9.72;93.43
60437;BME280;46289;51.992;4.498;2023-03-31T07:07:19;99590.66;;;9.75;93.02
60437;BME280;46289;51.992;4.498;2023-03-31T07:09:28;99587.00;;;9.78;93.03
60437;BME280;46289;51.992;4.498;2023-03-31T07:11:34;99589.53;;;9.79;92.88
60437;BME280;46289;51.992;4.498;2023-03-31T07:13:39;99586.66;;;9.84;93.04
60437;BME280;46289;51.992;4.498;2023-03-31T07:15:46;99578.00;;;9.82;92.73
60437;BME280;46289;51.992;4.498;2023-03-31T07:17:55;99580.50;;;9.85;92.55
60437;BME280;46289;51.992;4.498;2023-03-31T07:20:06;99582.56;;;9.94;92.83
60437;BME280;46289;51.992;4.498;2023-03-31T07:22:13;99573.00;;;9.93;92.84
60437;BME280;46289;51.992;4.498;2023-03-31T07:24:23;99582.56;;;9.94;92.98
60437;BME280;46289;51.992;4.498;2023-03-31T07:26:28;99568.59;;;9.94;93.21
60437;BME280;46289;51.992;4.498;2023-03-31T07:28:34;99569.38;;;9.96;92.98
60437;BME280;46289;51.992;4.498;2023-03-31T07:30:40;99568.94;;;10.03;93.30
60437;BME280;46289;51.992;4.498;2023-03-31T07:32:46;99574.25;;;10.02;93.07
60437;BME280;46289;51.992;4.498;2023-03-31T07:34:52;99567.22;;;10.02;92.72
60437;BME280;46289;51.992;4.498;2023-03-31T07:36:57;99571.09;;;10.11;92.14
60437;BME280;46289;51.992;4.498;2023-03-31T07:39:03;99565.66;;;10.14;92.64
60437;BME280;46289;51.992;4.498;2023-03-31T07:41:13;99566.13;;;10.21;92.57
60437;BME280;46289;51.992;4.498;2023-03-31T07:43:21;99571.31;;;10.22;92.33
60437;BME280;46289;51.992;4.498;2023-03-31T07:45:26;99556.19;;;10.26;91.71
60437;BME280;46289;51.992;4.498;2023-03-31T07:47:32;99561.09;;;10.32;91.67
60437;BME280;46289;51.992;4.498;2023-03-31T07:49:40;99555.69;;;10.35;91.68
60437;BME280;46289;51.992;4.498;2023-03-31T07:51:47;99544.25;;;10.36;91.04
60437;BME280;46289;51.992;4.498;2023-03-31T07:53:56;99552.69;;;10.41;91.69
60437;BME280;46289;51.992;4.498;2023-03-31T07:56:01;99543.69;;;10.45;92.27
60437;BME280;46289;51.992;4.498;2023-03-31T07:58:13;99542.00;;;10.44;91.96
60437;BME280;46289;51.992;4.498;2023-03-31T08:00:19;99536.94;;;10.41;90.95
60437;BME280;46289;51.992;4.498;2023-03-31T08:02:24;99532.25;;;10.46;91.22
60437;BME280;46289;51.992;4.498;2023-03-31T08:04:32;99535.16;;;10.42;91.75
60437;BME280;46289;51.992;4.498;2023-03-31T08:06:38;99529.63;;;10.46;91.50
60437;BME280;46289;51.992;4.498;2023-03-31T08:08:44;99534.88;;;10.46;91.28
60437;BME280;46289;51.992;4.498;2023-03-31T08:10:48;99536.19;;;10.53;91.70
60437;BME280;46289;51.992;4.498;2023-03-31T08:12:53;99528.69;;;10.62;91.72
60437;BME280;46289;51.992;4.498;2023-03-31T08:15:04;99522.22;;;10.67;90.70
60437;BME280;46289;51.992;4.498;2023-03-31T08:17:10;99517.13;;;10.79;90.73
60437;BME280;46289;51.992;4.498;2023-03-31T08:19:15;99522.53;;;10.90;90.54
60437;BME280;46289;51.992;4.498;2023-03-31T08:21:19;99520.41;;;10.82;90.42
60437;BME280;46289;51.992;4.498;2023-03-31T08:23:27;99512.72;;;10.65;90.16
60437;BME280;46289;51.992;4.498;2023-03-31T08:25:34;99505.03;;;10.62;90.75
60437;BME280;46289;51.992;4.498;2023-03-31T08:27:42;99485.41;;;10.53;90.03
60437;BME280;46289;51.992;4.498;2023-03-31T08:29:49;99486.66;;;10.47;90.88
60437;BME280;46289;51.992;4.498;2023-03-31T08:32:00;99499.78;;;10.47;90.66
60437;BME280;46289;51.992;4.498;2023-03-31T08:34:06;99489.19;;;10.49;90.40
60437;BME280;46289;51.992;4.498;2023-03-31T08:36:13;99483.19;;;10.47;91.17
60437;BME280;46289;51.992;4.498;2023-03-31T08:38:19;99503.44;;;10.59;90.59
60437;BME280;46289;51.992;4.498;2023-03-31T08:40:27;99494.53;;;10.62;90.38
60437;BME280;46289;51.992;4.498;2023-03-31T08:42:36;99489.66;;;10.70;90.73
60437;BME280;46289;51.992;4.498;2023-03-31T08:44:57;99487.28;;;10.80;90.54
60437;BME280;46289;51.992;4.498;2023-03-31T08:47:11;99487.72;;;10.86;90.46
60437;BME280;46289;51.992;4.498;2023-03-31T08:49:20;99480.06;;;10.83;89.63
60437;BME280;46289;51.992;4.498;2023-03-31T08:51:30;99473.13;;;10.82;89.37
60437;BME280;46289;51.992;4.498;2023-03-31T08:53:39;99461.84;;;10.80;89.14
60437;BME280;46289;51.992;4.498;2023-03-31T08:55:48;99475.69;;;10.96;88.90
60437;BME280;46289;51.992;4.498;2023-03-31T08:57:58;99466.63;;;11.15;88.09
60437;BME280;46289;51.992;4.498;2023-03-31T09:00:13;99481.34;;;11.45;88.13
60437;BME280;46289;51.992;4.498;2023-03-31T09:02:28;99467.72;;;11.65;87.69
60437;BME280;46289;51.992;4.498;2023-03-31T09:04:54;99468.63;;;11.91;86.75
60437;BME280;46289;51.992;4.498;2023-03-31T09:07:06;99467.22;;;11.85;85.82
60437;BME280;46289;51.992;4.498;2023-03-31T09:09:20;99452.88;;;11.77;85.02
60437;BME280;46289;51.992;4.498;2023-03-31T09:11:33;99476.75;;;11.74;85.81
60437;BME280;46289;51.992;4.498;2023-03-31T09:16:23;99463.47;;;11.50;86.10
60437;BME280;46289;51.992;4.498;2023-03-31T09:18:36;99462.34;;;11.54;86.40
60437;BME280;46289;51.992;4.498;2023-03-31T09:20:50;99453.28;;;11.58;86.85
60437;BME280;46289;51.992;4.498;2023-03-31T09:23:00;99455.28;;;11.54;86.13
60437;BME280;46289;51.992;4.498;2023-03-31T09:25:10;99449.97;;;11.41;86.06
60437;BME280;46289;51.992;4.498;2023-03-31T09:27:18;99450.47;;;11.34;85.51
60437;BME280;46289;51.992;4.498;2023-03-31T09:29:32;99449.16;;;11.41;85.77
60437;BME280;46289;51.992;4.498;2023-03-31T09:31:43;99442.38;;;11.37;85.70
60437;BME280;46289;51.992;4.498;2023-03-31T09:33:54;99435.66;;;11.33;85.38
60437;BME280;46289;51.992;4.498;2023-03-31T09:36:11;99433.56;;;11.38;85.15
60437;BME280;46289;51.992;4.498;2023-03-31T09:38:18;99429.56;;;11.32;85.16
60437;BME280;46289;51.992;4.498;2023-03-31T09:40:27;99423.75;;;11.27;85.59
60437;BME280;46289;51.992;4.498;2023-03-31T09:42:32;99415.88;;;11.27;85.11
60437;BME280;46289;51.992;4.498;2023-03-31T09:44:43;99431.47;;;11.43;85.29
60437;BME280;46289;51.992;4.498;2023-03-31T09:46:50;99411.91;;;11.47;83.60
60437;BME280;46289;51.992;4.498;2023-03-31T09:49:02;99415.59;;;11.57;85.41
60437;BME280;46289;51.992;4.498;2023-03-31T09:51:16;99424.53;;;11.55;85.04
60437;BME280;46289;51.992;4.498;2023-03-31T09:53:27;99413.91;;;11.43;85.53
60437;BME280;46289;51.992;4.498;2023-03-31T09:55:40;99413.91;;;11.43;86.60
60437;BME280;46289;51.992;4.498;2023-03-31T09:57:48;99414.66;;;11.46;86.62
60437;BME280;46289;51.992;4.498;2023-03-31T10:00:01;99417.38;;;11.44;86.84
60437;BME280;46289;51.992;4.498;2023-03-31T10:02:34;99413.78;;;11.32;85.41
60437;BME280;46289;51.992;4.498;2023-03-31T10:04:46;99395.25;;;11.34;85.17
60437;BME280;46289;51.992;4.498;2023-03-31T10:06:52;99418.00;;;11.35;84.76
60437;BME280;46289;51.992;4.498;2023-03-31T10:09:00;99417.13;;;11.34;85.49
60437;BME280;46289;51.992;4.498;2023-03-31T10:11:09;99407.28;;;11.38;86.60
60437;BME280;46289;51.992;4.498;2023-03-31T10:13:20;99407.44;;;11.22;85.09
60437;BME280;46289;51.992;4.498;2023-03-31T10:15:26;99409.63;;;11.15;85.48
60437;BME280;46289;51.992;4.498;2023-03-31T10:17:39;99400.06;;;11.14;86.13
60437;BME280;46289;51.992;4.498;2023-03-31T10:20:04;99402.47;;;11.17;86.54
60437;BME280;46289;51.992;4.498;2023-03-31T10:22:14;99395.63;;;11.15;85.87
60437;BME280;46289;51.992;4.498;2023-03-31T10:24:21;99392.47;;;11.10;86.20
60437;BME280;46289;51.992;4.498;2023-03-31T10:26:27;99396.47;;;11.15;86.52
60437;BME280;46289;51.992;4.498;2023-03-31T10:28:34;99395.44;;;11.18;84.39
60437;BME280;46289;51.992;4.498;2023-03-31T10:30:41;99404.06;;;11.20;85.50
60437;BME280;46289;51.992;4.498;2023-03-31T10:32:53;99409.75;;;11.14;85.91
60437;BME280;46289;51.992;4.498;2023-03-31T10:35:13;99413.97;;;11.16;86.92
60437;BME280;46289;51.992;4.498;2023-03-31T10:37:22;99398.59;;;11.23;86.21
60437;BME280;46289;51.992;4.498;2023-03-31T10:39:30;99411.84;;;11.21;87.00
60437;BME280;46289;51.992;4.498;2023-03-31T10:41:39;99409.63;;;11.15;86.78
60437;BME280;46289;51.992;4.498;2023-03-31T10:43:47;99413.75;;;11.19;87.32
60437;BME280;46289;51.992;4.498;2023-03-31T10:45:56;99416.53;;;11.04;87.23
60437;BME280;46289;51.992;4.498;2023-03-31T10:48:01;99408.16;;;11.11;87.83
60437;BME280;46289;51.992;4.498;2023-03-31T10:50:14;99393.44;;;11.09;87.52
60437;BME280;46289;51.992;4.498;2023-03-31T10:52:20;99396.47;;;11.15;87.88
60437;BME280;46289;51.992;4.498;2023-03-31T10:54:25;99392.88;;;11.04;86.86
60437;BME280;46289;51.992;4.498;2023-03-31T10:56:36;99384.13;;;11.03;87.37
60437;BME280;46289;51.992;4.498;2023-03-31T10:58:54;99376.06;;;11.06;87.34
60437;BME280;46289;51.992;4.498;2023-03-31T11:01:10;99383.78;;;10.95;87.52
60437;BME280;46289;51.992;4.498;2023-03-31T11:03:34;99386.59;;;11.06;87.75
60437;BME280;46289;51.992;4.498;2023-03-31T11:05:48;99377.75;;;11.07;87.56
60437;BME280;46289;51.992;4.498;2023-03-31T11:08:09;99375.31;;;11.04;86.99
60437;BME280;46289;51.992;4.498;2023-03-31T11:10:33;99375.81;;;10.96;86.32
60437;BME280;46289;51.992;4.498;2023-03-31T11:12:43;99375.81;;;10.96;86.63
60437;BME280;46289;51.992;4.498;2023-03-31T11:15:02;99369.06;;;10.92;87.91
60437;BME280;46289;51.992;4.498;2023-03-31T11:17:21;99373.06;;;10.85;88.36
60437;BME280;46289;51.992;4.498;2023-03-31T11:19:38;99369.22;;;10.76;88.84
60437;BME280;46289;51.992;4.498;2023-03-31T11:21:58;99374.03;;;10.70;89.02
60437;BME280;46289;51.992;4.498;2023-03-31T11:24:09;99363.38;;;10.59;88.29
60437;BME280;46289;51.992;4.498;2023-03-31T11:26:27;99374.53;;;10.62;88.79
60437;BME280;46289;51.992;4.498;2023-03-31T11:28:45;99376.47;;;10.73;88.95
60437;BME280;46289;51.992;4.498;2023-03-31T11:31:05;99366.50;;;10.78;88.97
60437;BME280;46289;51.992;4.498;2023-03-31T11:33:26;99381.66;;;10.87;89.04
60437;BME280;46289;51.992;4.498;2023-03-31T11:35:46;99368.03;;;10.95;88.22
60437;BME280;46289;51.992;4.498;2023-03-31T11:38:20;99374.31;;;10.92;87.60
60437;BME280;46289;51.992;4.498;2023-03-31T11:40:46;99369.31;;;11.02;87.13
60437;BME280;46289;51.992;4.498;2023-03-31T11:42:57;99353.53;;;11.02;86.68